sensor_id;sensor_type;location;lat;lon;timestamp;P1;durP1;ratioP1;P2;durP2;ratioP2
11008;SDS011;5557;51.670;7.788;2022-11-27T00:01:24;19.57;;;5.27;;
11008;SDS011;5557;51.670;7.788;2022-11-27T00:03:53;7.97;;;4.33;;
11008;SDS011;5557;51.670;7.788;2022-11-27T00:06:23;11.30;;;4.77;;
11008;SDS011;5557;51.670;7.788;2022-11-27T00:08:52;6.80;;;4.53;;
11008;SDS011;5557;51.670;7.788;2022-11-27T00:11:21;7.43;;;4.63;;
11008;SDS011;5557;51.670;7.788;2022-11-27T00:13:50;6.53;;;4.43;;
11008;SDS011;5557;51.670;7.788;2022-11-27T00:16:18;13.47;;;6.03;;
11008;SDS011;5557;51.670;7.788;2022-11-27T00:18:47;16.10;;;5.30;;
11008;SDS011;5557;51.670;7.788;2022-11-27T00:21:16;11.90;;;6.50;;
11008;SDS011;5557;51.670;7.788;2022-11-27T00:23:47;13.17;;;7.90;;
11008;SDS011;5557;51.670;7.788;2022-11-27T00:26:15;10.73;;;7.40;;
11008;SDS011;5557;51.670;7.788;2022-11-27T00:28:43;10.27;;;7.47;;
11008;SDS011;5557;51.670;7.788;2022-11-27T00:31:14;12.60;;;7.40;;
11008;SDS011;5557;51.670;7.788;2022-11-27T00:33:44;16.33;;;9.03;;
11008;SDS011;5557;51.670;7.788;2022-11-27T00:36:12;16.83;;;7.03;;
11008;SDS011;5557;51.670;7.788;2022-11-27T00:38:40;14.23;;;8.80;;
11008;SDS011;5557;51.670;7.788;2022-11-27T00:41:08;14.00;;;8.90;;
11008;SDS011;5557;51.670;7.788;2022-11-27T00:43:46;9.87;;;8.60;;
11008;SDS011;5557;51.670;7.788;2022-11-27T00:46:14;12.87;;;6.87;;
11008;SDS011;5557;51.670;7.788;2022-11-27T00:48:43;7.50;;;5.53;;
11008;SDS011;5557;51.670;7.788;2022-11-27T00:51:12;10.13;;;5.70;;
11008;SDS011;5557;51.670;7.788;2022-11-27T00:53:41;7.47;;;6.23;;
11008;SDS011;5557;51.670;7.788;2022-11-27T00:56:10;12.23;;;6.07;;
11008;SDS011;5557;51.670;7.788;2022-11-27T00:58:42;6.83;;;6.03;;
11008;SDS011;5557;51.670;7.788;2022-11-27T01:01:17;13.33;;;7.00;;
11008;SDS011;5557;51.670;7.788;2022-11-27T01:03:47;8.70;;;6.10;;
11008;SDS011;5557;51.670;7.788;2022-11-27T01:06:14;11.07;;;6.67;;
11008;SDS011;5557;51.670;7.788;2022-11-27T01:08:43;10.43;;;6.37;;
11008;SDS011;5557;51.670;7.788;2022-11-27T01:11:12;11.40;;;7.30;;
11008;SDS011;5557;51.670;7.788;2022-11-27T01:13:40;6.83;;;6.20;;
11008;SDS011;5557;51.670;7.788;2022-11-27T01:16:09;11.93;;;7.33;;
11008;SDS011;5557;51.670;7.788;2022-11-27T01:18:42;6.10;;;5.50;;
11008;SDS011;5557;51.670;7.788;2022-11-27T01:21:10;14.50;;;7.10;;
11008;SDS011;5557;51.670;7.788;2022-11-27T01:23:38;9.47;;;6.43;;
11008;SDS011;5557;51.670;7.788;2022-11-27T01:26:06;7.30;;;6.70;;
11008;SDS011;5557;51.670;7.788;2022-11-27T01:28:34;20.20;;;7.70;;
11008;SDS011;5557;51.670;7.788;2022-11-27T01:31:04;13.43;;;6.90;;
11008;SDS011;5557;51.670;7.788;2022-11-27T01:33:33;11.70;;;7.33;;
11008;SDS011;5557;51.670;7.788;2022-11-27T01:36:02;6.47;;;5.90;;
11008;SDS011;5557;51.670;7.788;2022-11-27T01:38:30;10.00;;;6.87;;
11008;SDS011;5557;51.670;7.788;2022-11-27T01:41:20;10.30;;;7.07;;
11008;SDS011;5557;51.670;7.788;2022-11-27T01:43:51;10.07;;;6.60;;
11008;SDS011;5557;51.670;7.788;2022-11-27T01:46:43;6.90;;;6.10;;
11008;SDS011;5557;51.670;7.788;2022-11-27T01:49:19;7.27;;;6.13;;
11008;SDS011;5557;51.670;7.788;2022-11-27T01:54:55;7.30;;;6.80;;
11008;SDS011;5557;51.670;7.788;2022-11-27T01:57:31;7.57;;;6.80;;
11008;SDS011;5557;51.670;7.788;2022-11-27T02:00:12;7.07;;;6.37;;
11008;SDS011;5557;51.670;7.788;2022-11-27T02:03:09;8.07;;;5.87;;
11008;SDS011;5557;51.670;7.788;2022-11-27T02:05:37;7.97;;;6.70;;
11008;SDS011;5557;51.670;7.788;2022-11-27T02:08:12;9.03;;;6.80;;
11008;SDS011;5557;51.670;7.788;2022-11-27T02:11:02;8.30;;;7.07;;
11008;SDS011;5557;51.670;7.788;2022-11-27T02:13:43;9.63;;;7.13;;
11008;SDS011;5557;51.670;7.788;2022-11-27T02:16:17;6.90;;;6.30;;
11008;SDS011;5557;51.670;7.788;2022-11-27T02:18:59;7.00;;;6.30;;
11008;SDS011;5557;51.670;7.788;2022-11-27T02:21:59;9.63;;;6.60;;
11008;SDS011;5557;51.670;7.788;2022-11-27T02:30:22;7.63;;;6.67;;
11008;SDS011;5557;51.670;7.788;2022-11-27T02:33:23;11.93;;;7.57;;
11008;SDS011;5557;51.670;7.788;2022-11-27T02:35:47;10.90;;;6.60;;
11008;SDS011;5557;51.670;7.788;2022-11-27T02:38:20;10.40;;;7.77;;
11008;SDS011;5557;51.670;7.788;2022-11-27T02:41:03;10.47;;;7.40;;
11008;SDS011;5557;51.670;7.788;2022-11-27T02:43:38;9.90;;;7.37;;
11008;SDS011;5557;51.670;7.788;2022-11-27T02:46:08;7.87;;;7.07;;
11008;SDS011;5557;51.670;7.788;2022-11-27T02:48:47;11.00;;;7.10;;
11008;SDS011;5557;51.670;7.788;2022-11-27T02:51:17;8.50;;;7.50;;
11008;SDS011;5557;51.670;7.788;2022-11-27T02:53:56;10.20;;;7.13;;
11008;SDS011;5557;51.670;7.788;2022-11-27T02:56:28;7.47;;;6.83;;
11008;SDS011;5557;51.670;7.788;2022-11-27T02:59:00;11.80;;;7.97;;
11008;SDS011;5557;51.670;7.788;2022-11-27T03:01:32;7.27;;;6.50;;
11008;SDS011;5557;51.670;7.788;2022-11-27T03:04:06;11.80;;;6.90;;
11008;SDS011;5557;51.670;7.788;2022-11-27T03:06:38;8.47;;;7.00;;
11008;SDS011;5557;51.670;7.788;2022-11-27T03:09:09;10.97;;;7.03;;
11008;SDS011;5557;51.670;7.788;2022-11-27T03:11:50;11.60;;;7.10;;
11008;SDS011;5557;51.670;7.788;2022-11-27T03:14:17;7.93;;;7.23;;
11008;SDS011;5557;51.670;7.788;2022-11-27T03:17:00;10.80;;;7.70;;
11008;SDS011;5557;51.670;7.788;2022-11-27T03:19:37;8.60;;;7.90;;
11008;SDS011;5557;51.670;7.788;2022-11-27T03:22:05;12.07;;;7.90;;
11008;SDS011;5557;51.670;7.788;2022-11-27T03:24:33;9.43;;;7.20;;
11008;SDS011;5557;51.670;7.788;2022-11-27T03:27:01;7.27;;;6.87;;
11008;SDS011;5557;51.670;7.788;2022-11-27T03:29:43;10.80;;;7.20;;
11008;SDS011;5557;51.670;7.788;2022-11-27T03:32:14;7.50;;;6.80;;
11008;SDS011;5557;51.670;7.788;2022-11-27T03:34:41;9.03;;;7.00;;
11008;SDS011;5557;51.670;7.788;2022-11-27T03:37:09;7.50;;;6.90;;
11008;SDS011;5557;51.670;7.788;2022-11-27T03:39:36;8.47;;;6.30;;
11008;SDS011;5557;51.670;7.788;2022-11-27T03:42:10;12.77;;;6.60;;
11008;SDS011;5557;51.670;7.788;2022-11-27T03:44:55;7.13;;;6.43;;
11008;SDS011;5557;51.670;7.788;2022-11-27T03:48:10;8.87;;;6.90;;
11008;SDS011;5557;51.670;7.788;2022-11-27T03:53:50;8.73;;;6.90;;
11008;SDS011;5557;51.670;7.788;2022-11-27T03:56:47;10.53;;;7.20;;
11008;SDS011;5557;51.670;7.788;2022-11-27T03:59:27;8.83;;;7.13;;
11008;SDS011;5557;51.670;7.788;2022-11-27T04:01:57;8.50;;;7.77;;
11008;SDS011;5557;51.670;7.788;2022-11-27T04:04:24;8.97;;;8.03;;
11008;SDS011;5557;51.670;7.788;2022-11-27T04:06:51;9.20;;;7.93;;
11008;SDS011;5557;51.670;7.788;2022-11-27T04:09:18;7.97;;;7.00;;
11008;SDS011;5557;51.670;7.788;2022-11-27T04:11:45;13.50;;;7.10;;
11008;SDS011;5557;51.670;7.788;2022-11-27T04:14:12;9.60;;;7.27;;
11008;SDS011;5557;51.670;7.788;2022-11-27T04:16:39;10.10;;;7.80;;
11008;SDS011;5557;51.670;7.788;2022-11-27T04:19:06;10.67;;;7.37;;
11008;SDS011;5557;51.670;7.788;2022-11-27T04:21:34;17.17;;;8.83;;
11008;SDS011;5557;51.670;7.788;2022-11-27T04:24:01;8.70;;;7.90;;
11008;SDS011;5557;51.670;7.788;2022-11-27T04:26:28;15.40;;;7.83;;
11008;SDS011;5557;51.670;7.788;2022-11-27T04:28:55;9.70;;;7.67;;
11008;SDS011;5557;51.670;7.788;2022-11-27T04:31:22;9.23;;;7.43;;
11008;SDS011;5557;51.670;7.788;2022-11-27T04:33:49;7.43;;;7.03;;
11008;SDS011;5557;51.670;7.788;2022-11-27T04:36:16;8.70;;;7.87;;
11008;SDS011;5557;51.670;7.788;2022-11-27T04:38:43;8.87;;;7.93;;
11008;SDS011;5557;51.670;7.788;2022-11-27T04:41:09;11.17;;;8.40;;
11008;SDS011;5557;51.670;7.788;2022-11-27T04:43:36;9.00;;;7.90;;
11008;SDS011;5557;51.670;7.788;2022-11-27T04:46:03;9.63;;;8.47;;
11008;SDS011;5557;51.670;7.788;2022-11-27T04:48:30;8.33;;;7.80;;
11008;SDS011;5557;51.670;7.788;2022-11-27T04:50:57;8.53;;;7.70;;
11008;SDS011;5557;51.670;7.788;2022-11-27T04:53:24;8.87;;;8.07;;
11008;SDS011;5557;51.670;7.788;2022-11-27T04:55:51;9.87;;;7.63;;
11008;SDS011;5557;51.670;7.788;2022-11-27T04:58:18;9.20;;;7.53;;
11008;SDS011;5557;51.670;7.788;2022-11-27T05:00:45;10.60;;;7.90;;
11008;SDS011;5557;51.670;7.788;2022-11-27T05:03:12;8.97;;;7.70;;
11008;SDS011;5557;51.670;7.788;2022-11-27T05:05:39;11.33;;;7.13;;
11008;SDS011;5557;51.670;7.788;2022-11-27T05:08:06;7.80;;;7.13;;
11008;SDS011;5557;51.670;7.788;2022-11-27T05:10:33;8.60;;;7.00;;
11008;SDS011;5557;51.670;7.788;2022-11-27T05:13:00;7.43;;;6.73;;
11008;SDS011;5557;51.670;7.788;2022-11-27T05:15:26;7.00;;;6.50;;
11008;SDS011;5557;51.670;7.788;2022-11-27T05:17:53;6.90;;;6.40;;
11008;SDS011;5557;51.670;7.788;2022-11-27T05:20:20;7.30;;;6.30;;
11008;SDS011;5557;51.670;7.788;2022-11-27T05:22:47;6.80;;;6.13;;
11008;SDS011;5557;51.670;7.788;2022-11-27T05:25:15;7.77;;;7.00;;
11008;SDS011;5557;51.670;7.788;2022-11-27T05:27:42;8.43;;;6.27;;
11008;SDS011;5557;51.670;7.788;2022-11-27T05:30:09;6.60;;;6.10;;
11008;SDS011;5557;51.670;7.788;2022-11-27T05:32:36;8.57;;;6.30;;
11008;SDS011;5557;51.670;7.788;2022-11-27T05:35:04;7.33;;;6.57;;
11008;SDS011;5557;51.670;7.788;2022-11-27T05:37:31;6.10;;;5.67;;
11008;SDS011;5557;51.670;7.788;2022-11-27T05:39:58;7.50;;;6.40;;
11008;SDS011;5557;51.670;7.788;2022-11-27T05:42:25;6.30;;;5.90;;
11008;SDS011;5557;51.670;7.788;2022-11-27T05:44:52;9.17;;;6.50;;
11008;SDS011;5557;51.670;7.788;2022-11-27T05:47:23;12.63;;;6.30;;
11008;SDS011;5557;51.670;7.788;2022-11-27T05:49:50;6.80;;;6.20;;
11008;SDS011;5557;51.670;7.788;2022-11-27T05:52:17;10.20;;;5.97;;
11008;SDS011;5557;51.670;7.788;2022-11-27T05:54:44;8.00;;;5.90;;
11008;SDS011;5557;51.670;7.788;2022-11-27T05:57:11;11.43;;;7.17;;
11008;SDS011;5557;51.670;7.788;2022-11-27T05:59:38;7.43;;;5.90;;
11008;SDS011;5557;51.670;7.788;2022-11-27T06:02:05;8.90;;;6.60;;
11008;SDS011;5557;51.670;7.788;2022-11-27T06:04:32;9.43;;;6.83;;
11008;SDS011;5557;51.670;7.788;2022-11-27T06:06:59;6.53;;;6.13;;
11008;SDS011;5557;51.670;7.788;2022-11-27T06:09:27;9.67;;;6.80;;
11008;SDS011;5557;51.670;7.788;2022-11-27T06:11:53;6.33;;;5.93;;
11008;SDS011;5557;51.670;7.788;2022-11-27T06:14:20;7.27;;;6.53;;
11008;SDS011;5557;51.670;7.788;2022-11-27T06:16:47;8.10;;;5.80;;
11008;SDS011;5557;51.670;7.788;2022-11-27T06:19:14;5.73;;;5.33;;
11008;SDS011;5557;51.670;7.788;2022-11-27T06:21:41;6.90;;;6.40;;
11008;SDS011;5557;51.670;7.788;2022-11-27T06:24:11;7.30;;;6.70;;
11008;SDS011;5557;51.670;7.788;2022-11-27T06:26:37;6.40;;;5.90;;
11008;SDS011;5557;51.670;7.788;2022-11-27T06:29:04;6.47;;;5.97;;
11008;SDS011;5557;51.670;7.788;2022-11-27T06:31:31;6.90;;;6.30;;
11008;SDS011;5557;51.670;7.788;2022-11-27T06:33:59;7.17;;;6.50;;
11008;SDS011;5557;51.670;7.788;2022-11-27T06:36:28;6.40;;;5.80;;
11008;SDS011;5557;51.670;7.788;2022-11-27T06:38:59;10.13;;;6.80;;
11008;SDS011;5557;51.670;7.788;2022-11-27T06:41:26;7.03;;;6.37;;
11008;SDS011;5557;51.670;7.788;2022-11-27T06:43:54;7.90;;;5.13;;
11008;SDS011;5557;51.670;7.788;2022-11-27T06:46:23;10.20;;;6.63;;
11008;SDS011;5557;51.670;7.788;2022-11-27T06:48:51;8.03;;;6.23;;
11008;SDS011;5557;51.670;7.788;2022-11-27T06:51:20;6.40;;;5.90;;
11008;SDS011;5557;51.670;7.788;2022-11-27T06:53:49;7.57;;;7.00;;
11008;SDS011;5557;51.670;7.788;2022-11-27T06:56:18;6.57;;;6.07;;
11008;SDS011;5557;51.670;7.788;2022-11-27T06:58:49;10.40;;;6.10;;
11008;SDS011;5557;51.670;7.788;2022-11-27T07:01:17;8.43;;;6.40;;
11008;SDS011;5557;51.670;7.788;2022-11-27T07:03:45;6.83;;;6.20;;
11008;SDS011;5557;51.670;7.788;2022-11-27T07:06:13;7.47;;;6.70;;
11008;SDS011;5557;51.670;7.788;2022-11-27T07:08:43;7.17;;;5.93;;
11008;SDS011;5557;51.670;7.788;2022-11-27T07:11:17;10.13;;;6.43;;
11008;SDS011;5557;51.670;7.788;2022-11-27T07:13:46;10.17;;;6.47;;
11008;SDS011;5557;51.670;7.788;2022-11-27T07:16:14;9.40;;;6.07;;
11008;SDS011;5557;51.670;7.788;2022-11-27T07:18:43;6.63;;;5.90;;
11008;SDS011;5557;51.670;7.788;2022-11-27T07:21:11;9.60;;;6.70;;
11008;SDS011;5557;51.670;7.788;2022-11-27T07:23:39;6.67;;;6.07;;
11008;SDS011;5557;51.670;7.788;2022-11-27T07:26:25;11.23;;;6.23;;
11008;SDS011;5557;51.670;7.788;2022-11-27T07:28:53;6.90;;;6.40;;
11008;SDS011;5557;51.670;7.788;2022-11-27T07:31:21;10.23;;;7.37;;
11008;SDS011;5557;51.670;7.788;2022-11-27T07:33:50;6.77;;;6.17;;
11008;SDS011;5557;51.670;7.788;2022-11-27T07:36:20;7.17;;;6.50;;
11008;SDS011;5557;51.670;7.788;2022-11-27T07:38:49;9.30;;;7.70;;
11008;SDS011;5557;51.670;7.788;2022-11-27T07:41:16;9.03;;;6.63;;
11008;SDS011;5557;51.670;7.788;2022-11-27T07:43:43;7.80;;;6.50;;
11008;SDS011;5557;51.670;7.788;2022-11-27T07:46:21;7.20;;;6.50;;
11008;SDS011;5557;51.670;7.788;2022-11-27T07:48:49;7.70;;;7.00;;
11008;SDS011;5557;51.670;7.788;2022-11-27T07:51:17;10.93;;;7.00;;
11008;SDS011;5557;51.670;7.788;2022-11-27T07:53:46;14.30;;;7.73;;
11008;SDS011;5557;51.670;7.788;2022-11-27T07:56:14;11.97;;;6.80;;
11008;SDS011;5557;51.670;7.788;2022-11-27T07:58:41;7.60;;;6.90;;
11008;SDS011;5557;51.670;7.788;2022-11-27T08:01:14;8.30;;;6.90;;
11008;SDS011;5557;51.670;7.788;2022-11-27T08:03:43;6.87;;;6.27;;
11008;SDS011;5557;51.670;7.788;2022-11-27T08:06:14;7.03;;;6.37;;
11008;SDS011;5557;51.670;7.788;2022-11-27T08:08:49;7.77;;;7.07;;
11008;SDS011;5557;51.670;7.788;2022-11-27T08:11:21;7.40;;;6.57;;
11008;SDS011;5557;51.670;7.788;2022-11-27T08:13:56;8.63;;;6.97;;
11008;SDS011;5557;51.670;7.788;2022-11-27T08:16:25;17.80;;;6.80;;
11008;SDS011;5557;51.670;7.788;2022-11-27T08:18:53;8.73;;;7.00;;
11008;SDS011;5557;51.670;7.788;2022-11-27T08:21:20;8.20;;;6.10;;
11008;SDS011;5557;51.670;7.788;2022-11-27T08:23:47;7.83;;;6.90;;
11008;SDS011;5557;51.670;7.788;2022-11-27T08:26:14;7.17;;;5.97;;
11008;SDS011;5557;51.670;7.788;2022-11-27T08:28:41;7.03;;;6.43;;
11008;SDS011;5557;51.670;7.788;2022-11-27T08:31:09;9.97;;;7.00;;
11008;SDS011;5557;51.670;7.788;2022-11-27T08:33:38;8.23;;;6.93;;
11008;SDS011;5557;51.670;7.788;2022-11-27T08:36:06;11.23;;;5.97;;
11008;SDS011;5557;51.670;7.788;2022-11-27T08:38:40;7.07;;;6.37;;
11008;SDS011;5557;51.670;7.788;2022-11-27T08:41:07;6.10;;;5.60;;
11008;SDS011;5557;51.670;7.788;2022-11-27T08:43:34;6.53;;;6.03;;
11008;SDS011;5557;51.670;7.788;2022-11-27T08:46:02;7.00;;;6.30;;
11008;SDS011;5557;51.670;7.788;2022-11-27T08:48:30;8.77;;;5.30;;
11008;SDS011;5557;51.670;7.788;2022-11-27T08:50:57;7.40;;;6.63;;
11008;SDS011;5557;51.670;7.788;2022-11-27T08:53:25;9.83;;;6.30;;
11008;SDS011;5557;51.670;7.788;2022-11-27T08:58:46;7.17;;;5.70;;
11008;SDS011;5557;51.670;7.788;2022-11-27T09:01:23;5.50;;;5.00;;
11008;SDS011;5557;51.670;7.788;2022-11-27T09:03:51;8.80;;;5.23;;
11008;SDS011;5557;51.670;7.788;2022-11-27T09:06:22;6.50;;;5.13;;
11008;SDS011;5557;51.670;7.788;2022-11-27T09:08:51;6.40;;;5.23;;
11008;SDS011;5557;51.670;7.788;2022-11-27T09:11:18;5.33;;;4.83;;
11008;SDS011;5557;51.670;7.788;2022-11-27T09:13:45;5.20;;;4.80;;
11008;SDS011;5557;51.670;7.788;2022-11-27T09:16:14;5.60;;;5.10;;
11008;SDS011;5557;51.670;7.788;2022-11-27T09:18:43;5.23;;;4.80;;
11008;SDS011;5557;51.670;7.788;2022-11-27T09:21:11;4.90;;;4.50;;
11008;SDS011;5557;51.670;7.788;2022-11-27T09:23:40;6.33;;;4.30;;
11008;SDS011;5557;51.670;7.788;2022-11-27T09:26:08;14.70;;;4.30;;
11008;SDS011;5557;51.670;7.788;2022-11-27T09:28:38;5.73;;;3.87;;
11008;SDS011;5557;51.670;7.788;2022-11-27T09:31:06;6.70;;;4.00;;
11008;SDS011;5557;51.670;7.788;2022-11-27T09:33:36;4.90;;;3.87;;
11008;SDS011;5557;51.670;7.788;2022-11-27T09:36:08;4.70;;;3.80;;
11008;SDS011;5557;51.670;7.788;2022-11-27T09:38:40;6.83;;;3.50;;
11008;SDS011;5557;51.670;7.788;2022-11-27T09:44:22;4.47;;;4.10;;
11008;SDS011;5557;51.670;7.788;2022-11-27T09:47:08;3.37;;;2.97;;
11008;SDS011;5557;51.670;7.788;2022-11-27T09:50:04;4.97;;;3.30;;
11008;SDS011;5557;51.670;7.788;2022-11-27T09:53:00;6.20;;;3.80;;
11008;SDS011;5557;51.670;7.788;2022-11-27T09:55:33;4.90;;;3.17;;
11008;SDS011;5557;51.670;7.788;2022-11-27T09:58:56;3.43;;;3.13;;
11008;SDS011;5557;51.670;7.788;2022-11-27T10:01:15;3.50;;;3.20;;
11008;SDS011;5557;51.670;7.788;2022-11-27T10:03:44;8.00;;;2.87;;
11008;SDS011;5557;51.670;7.788;2022-11-27T10:09:59;3.40;;;2.67;;
11008;SDS011;5557;51.670;7.788;2022-11-27T10:12:49;4.30;;;3.13;;
11008;SDS011;5557;51.670;7.788;2022-11-27T10:15:54;3.63;;;2.70;;
11008;SDS011;5557;51.670;7.788;2022-11-27T10:18:31;5.70;;;2.83;;
11008;SDS011;5557;51.670;7.788;2022-11-27T10:24:23;4.50;;;3.23;;
11008;SDS011;5557;51.670;7.788;2022-11-27T10:27:12;7.07;;;3.00;;
11008;SDS011;5557;51.670;7.788;2022-11-27T10:29:49;4.20;;;3.57;;
11008;SDS011;5557;51.670;7.788;2022-11-27T10:32:24;3.70;;;3.40;;
11008;SDS011;5557;51.670;7.788;2022-11-27T10:35:16;3.80;;;3.00;;
11008;SDS011;5557;51.670;7.788;2022-11-27T10:37:46;3.20;;;3.00;;
11008;SDS011;5557;51.670;7.788;2022-11-27T10:40:53;2.87;;;2.53;;
11008;SDS011;5557;51.670;7.788;2022-11-27T10:44:02;3.10;;;2.90;;
11008;SDS011;5557;51.670;7.788;2022-11-27T10:47:04;3.90;;;2.50;;
11008;SDS011;5557;51.670;7.788;2022-11-27T10:49:40;3.20;;;2.63;;
11008;SDS011;5557;51.670;7.788;2022-11-27T10:52:10;3.57;;;3.10;;
11008;SDS011;5557;51.670;7.788;2022-11-27T10:54:39;2.70;;;2.53;;
11008;SDS011;5557;51.670;7.788;2022-11-27T11:00:11;2.60;;;2.40;;
11008;SDS011;5557;51.670;7.788;2022-11-27T11:02:45;5.03;;;2.23;;
11008;SDS011;5557;51.670;7.788;2022-11-27T11:05:22;4.13;;;2.80;;
11008;SDS011;5557;51.670;7.788;2022-11-27T11:08:19;6.00;;;2.50;;
11008;SDS011;5557;51.670;7.788;2022-11-27T11:10:51;3.53;;;2.40;;
11008;SDS011;5557;51.670;7.788;2022-11-27T11:13:30;2.63;;;2.50;;
11008;SDS011;5557;51.670;7.788;2022-11-27T11:16:05;4.37;;;2.80;;
11008;SDS011;5557;51.670;7.788;2022-11-27T11:18:50;2.80;;;2.17;;
11008;SDS011;5557;51.670;7.788;2022-11-27T11:24:06;1.97;;;1.87;;
11008;SDS011;5557;51.670;7.788;2022-11-27T11:26:50;2.60;;;2.40;;
11008;SDS011;5557;51.670;7.788;2022-11-27T11:29:33;4.70;;;2.70;;
11008;SDS011;5557;51.670;7.788;2022-11-27T11:32:13;2.63;;;1.83;;
11008;SDS011;5557;51.670;7.788;2022-11-27T11:35:01;2.30;;;2.10;;
11008;SDS011;5557;51.670;7.788;2022-11-27T11:37:49;2.40;;;2.30;;
11008;SDS011;5557;51.670;7.788;2022-11-27T11:42:59;2.43;;;2.07;;
11008;SDS011;5557;51.670;7.788;2022-11-27T11:45:29;3.00;;;2.80;;
11008;SDS011;5557;51.670;7.788;2022-11-27T11:48:02;2.67;;;2.53;;
11008;SDS011;5557;51.670;7.788;2022-11-27T11:50:46;2.30;;;2.10;;
11008;SDS011;5557;51.670;7.788;2022-11-27T12:15:29;2.53;;;2.33;;
11008;SDS011;5557;51.670;7.788;2022-11-27T12:18:22;2.57;;;2.37;;
11008;SDS011;5557;51.670;7.788;2022-11-27T12:26:52;3.20;;;2.67;;
11008;SDS011;5557;51.670;7.788;2022-11-27T12:32:30;2.23;;;2.00;;
11008;SDS011;5557;51.670;7.788;2022-11-27T12:39:29;1.67;;;1.57;;
11008;SDS011;5557;51.670;7.788;2022-11-27T12:44:18;2.40;;;2.20;;
11008;SDS011;5557;51.670;7.788;2022-11-27T12:46:58;4.87;;;1.90;;
11008;SDS011;5557;51.670;7.788;2022-11-27T12:49:36;3.83;;;1.70;;
11008;SDS011;5557;51.670;7.788;2022-11-27T12:52:13;1.77;;;1.67;;
11008;SDS011;5557;51.670;7.788;2022-11-27T12:54:52;5.57;;;2.23;;
11008;SDS011;5557;51.670;7.788;2022-11-27T12:57:42;2.17;;;1.97;;
11008;SDS011;5557;51.670;7.788;2022-11-27T13:00:15;2.37;;;2.00;;
11008;SDS011;5557;51.670;7.788;2022-11-27T13:05:33;3.27;;;2.97;;
11008;SDS011;5557;51.670;7.788;2022-11-27T13:08:24;2.13;;;1.93;;
11008;SDS011;5557;51.670;7.788;2022-11-27T13:11:04;4.47;;;2.20;;
11008;SDS011;5557;51.670;7.788;2022-11-27T13:16:55;3.50;;;3.30;;
11008;SDS011;5557;51.670;7.788;2022-11-27T13:19:11;2.10;;;1.90;;
11008;SDS011;5557;51.670;7.788;2022-11-27T13:22:04;2.73;;;2.50;;
11008;SDS011;5557;51.670;7.788;2022-11-27T13:24:35;2.67;;;2.47;;
11008;SDS011;5557;51.670;7.788;2022-11-27T13:27:04;1.73;;;1.63;;
11008;SDS011;5557;51.670;7.788;2022-11-27T13:29:41;2.00;;;1.80;;
11008;SDS011;5557;51.670;7.788;2022-11-27T13:32:20;3.13;;;1.80;;
11008;SDS011;5557;51.670;7.788;2022-11-27T13:34:48;1.70;;;1.60;;
11008;SDS011;5557;51.670;7.788;2022-11-27T13:37:27;1.60;;;1.50;;
11008;SDS011;5557;51.670;7.788;2022-11-27T13:42:58;1.53;;;1.43;;
11008;SDS011;5557;51.670;7.788;2022-11-27T13:45:39;2.00;;;1.80;;
11008;SDS011;5557;51.670;7.788;2022-11-27T13:50:57;2.60;;;1.40;;
11008;SDS011;5557;51.670;7.788;2022-11-27T13:53:33;5.00;;;2.60;;
11008;SDS011;5557;51.670;7.788;2022-11-27T13:56:03;1.70;;;1.60;;
11008;SDS011;5557;51.670;7.788;2022-11-27T13:58:40;4.93;;;2.00;;
11008;SDS011;5557;51.670;7.788;2022-11-27T14:01:13;3.80;;;1.50;;
11008;SDS011;5557;51.670;7.788;2022-11-27T14:03:46;2.17;;;2.00;;
11008;SDS011;5557;51.670;7.788;2022-11-27T14:08:55;2.30;;;1.93;;
11008;SDS011;5557;51.670;7.788;2022-11-27T14:13:59;3.20;;;1.90;;
11008;SDS011;5557;51.670;7.788;2022-11-27T14:16:32;3.53;;;1.60;;
11008;SDS011;5557;51.670;7.788;2022-11-27T14:19:03;2.10;;;2.00;;
11008;SDS011;5557;51.670;7.788;2022-11-27T14:21:48;1.90;;;1.80;;
11008;SDS011;5557;51.670;7.788;2022-11-27T14:24:37;1.87;;;1.73;;
11008;SDS011;5557;51.670;7.788;2022-11-27T14:27:20;1.63;;;1.23;;
11008;SDS011;5557;51.670;7.788;2022-11-27T14:29:49;1.90;;;1.80;;
11008;SDS011;5557;51.670;7.788;2022-11-27T14:32:18;1.73;;;1.63;;
11008;SDS011;5557;51.670;7.788;2022-11-27T14:34:46;2.80;;;2.60;;
11008;SDS011;5557;51.670;7.788;2022-11-27T14:37:24;4.43;;;3.17;;
11008;SDS011;5557;51.670;7.788;2022-11-27T14:39:53;3.20;;;2.90;;
11008;SDS011;5557;51.670;7.788;2022-11-27T14:42:22;4.80;;;2.80;;
11008;SDS011;5557;51.670;7.788;2022-11-27T14:47:46;2.50;;;2.40;;
11008;SDS011;5557;51.670;7.788;2022-11-27T14:50:15;5.53;;;2.80;;
11008;SDS011;5557;51.670;7.788;2022-11-27T14:52:46;6.27;;;2.77;;
11008;SDS011;5557;51.670;7.788;2022-11-27T14:55:20;2.90;;;2.70;;
11008;SDS011;5557;51.670;7.788;2022-11-27T14:57:48;3.23;;;2.87;;
11008;SDS011;5557;51.670;7.788;2022-11-27T15:00:25;4.30;;;3.57;;
11008;SDS011;5557;51.670;7.788;2022-11-27T15:02:52;5.77;;;3.10;;
11008;SDS011;5557;51.670;7.788;2022-11-27T15:07:52;4.97;;;2.97;;
11008;SDS011;5557;51.670;7.788;2022-11-27T15:10:35;3.00;;;2.60;;
11008;SDS011;5557;51.670;7.788;2022-11-27T15:13:14;3.23;;;2.93;;
11008;SDS011;5557;51.670;7.788;2022-11-27T15:15:51;12.53;;;3.73;;
11008;SDS011;5557;51.670;7.788;2022-11-27T15:18:30;3.23;;;2.80;;
11008;SDS011;5557;51.670;7.788;2022-11-27T15:21:07;3.07;;;2.70;;
11008;SDS011;5557;51.670;7.788;2022-11-27T15:23:36;3.30;;;3.10;;
11008;SDS011;5557;51.670;7.788;2022-11-27T15:26:11;2.43;;;2.23;;
11008;SDS011;5557;51.670;7.788;2022-11-27T15:28:50;3.50;;;2.57;;
11008;SDS011;5557;51.670;7.788;2022-11-27T15:31:21;3.23;;;3.03;;
11008;SDS011;5557;51.670;7.788;2022-11-27T15:37:01;5.93;;;3.30;;
11008;SDS011;5557;51.670;7.788;2022-11-27T15:39:48;5.93;;;3.20;;
11008;SDS011;5557;51.670;7.788;2022-11-27T15:42:20;2.63;;;2.43;;
11008;SDS011;5557;51.670;7.788;2022-11-27T15:44:48;2.63;;;2.43;;
11008;SDS011;5557;51.670;7.788;2022-11-27T15:47:28;4.30;;;2.40;;
11008;SDS011;5557;51.670;7.788;2022-11-27T15:49:57;3.23;;;3.03;;
11008;SDS011;5557;51.670;7.788;2022-11-27T15:52:24;2.73;;;2.53;;
11008;SDS011;5557;51.670;7.788;2022-11-27T15:54:52;3.00;;;2.70;;
11008;SDS011;5557;51.670;7.788;2022-11-27T15:57:20;2.33;;;2.20;;
11008;SDS011;5557;51.670;7.788;2022-11-27T15:59:47;2.70;;;2.60;;
11008;SDS011;5557;51.670;7.788;2022-11-27T16:02:14;2.50;;;2.40;;
11008;SDS011;5557;51.670;7.788;2022-11-27T16:04:43;4.80;;;2.77;;
11008;SDS011;5557;51.670;7.788;2022-11-27T16:07:10;3.77;;;3.37;;
11008;SDS011;5557;51.670;7.788;2022-11-27T16:09:37;4.13;;;3.77;;
11008;SDS011;5557;51.670;7.788;2022-11-27T16:12:05;3.97;;;3.20;;
11008;SDS011;5557;51.670;7.788;2022-11-27T16:14:32;4.50;;;4.13;;
11008;SDS011;5557;51.670;7.788;2022-11-27T16:16:59;4.23;;;4.03;;
11008;SDS011;5557;51.670;7.788;2022-11-27T16:19:54;5.23;;;4.77;;
11008;SDS011;5557;51.670;7.788;2022-11-27T16:22:22;6.30;;;5.47;;
11008;SDS011;5557;51.670;7.788;2022-11-27T16:24:49;5.23;;;4.93;;
11008;SDS011;5557;51.670;7.788;2022-11-27T16:27:16;7.10;;;5.97;;
11008;SDS011;5557;51.670;7.788;2022-11-27T16:29:43;5.27;;;4.87;;
11008;SDS011;5557;51.670;7.788;2022-11-27T16:32:10;6.87;;;6.23;;
11008;SDS011;5557;51.670;7.788;2022-11-27T16:34:38;9.20;;;7.03;;
11008;SDS011;5557;51.670;7.788;2022-11-27T16:37:05;6.87;;;6.20;;
11008;SDS011;5557;51.670;7.788;2022-11-27T16:39:33;10.83;;;5.57;;
11008;SDS011;5557;51.670;7.788;2022-11-27T16:42:03;5.50;;;5.00;;
11008;SDS011;5557;51.670;7.788;2022-11-27T16:44:30;8.27;;;5.20;;
11008;SDS011;5557;51.670;7.788;2022-11-27T16:46:57;5.50;;;5.10;;
11008;SDS011;5557;51.670;7.788;2022-11-27T16:49:24;5.70;;;5.17;;
11008;SDS011;5557;51.670;7.788;2022-11-27T16:51:51;5.33;;;3.47;;
11008;SDS011;5557;51.670;7.788;2022-11-27T16:54:18;3.97;;;2.90;;
11008;SDS011;5557;51.670;7.788;2022-11-27T16:56:45;9.37;;;3.60;;
11008;SDS011;5557;51.670;7.788;2022-11-27T16:59:13;3.20;;;2.90;;
11008;SDS011;5557;51.670;7.788;2022-11-27T17:01:40;4.30;;;3.73;;
11008;SDS011;5557;51.670;7.788;2022-11-27T17:04:13;2.90;;;2.70;;
11008;SDS011;5557;51.670;7.788;2022-11-27T17:06:45;4.70;;;4.17;;